createdAt,value
2022-08-31T00:01:38.768Z,100.00
2022-08-31T00:04:08.947Z,100.00
2022-08-31T00:06:38.152Z,100.00
2022-08-31T00:09:08.838Z,100.00
2022-08-31T00:11:37.897Z,100.00
2022-08-31T00:14:12.437Z,100.00
2022-08-31T00:16:46.217Z,100.00
2022-08-31T00:19:15.559Z,100.00
2022-08-31T00:21:44.772Z,100.00
2022-08-31T00:24:14.855Z,100.00
2022-08-31T00:26:44.852Z,100.00
2022-08-31T00:29:13.517Z,100.00
2022-08-31T00:31:46.654Z,100.00
2022-08-31T00:34:15.615Z,100.00
2022-08-31T00:36:46.374Z,100.00
2022-08-31T00:39:15.169Z,100.00
2022-08-31T00:41:43.848Z,100.00
2022-08-31T00:44:12.986Z,100.00
2022-08-31T00:46:45.308Z,100.00
2022-08-31T00:49:19.625Z,100.00
2022-08-31T00:51:51.574Z,100.00
2022-08-31T00:54:26.182Z,100.00
2022-08-31T00:56:55.813Z,100.00
2022-08-31T00:59:25.217Z,100.00
2022-08-31T01:01:54.033Z,100.00
2022-08-31T01:04:24.350Z,100.00
2022-08-31T01:06:53.690Z,100.00
2022-08-31T01:09:25.595Z,100.00
2022-08-31T01:11:54.457Z,100.00
2022-08-31T01:14:23.286Z,100.00
2022-08-31T01:16:55.796Z,100.00
2022-08-31T01:19:39.989Z,100.00
2022-08-31T01:22:17.434Z,100.00
2022-08-31T01:24:49.788Z,100.00
2022-08-31T01:27:30.128Z,100.00
2022-08-31T01:30:01.509Z,100.00
2022-08-31T01:32:31.485Z,100.00
2022-08-31T01:35:11.506Z,100.00
2022-08-31T01:37:40.497Z,100.00
2022-08-31T01:40:13.263Z,100.00
2022-08-31T01:42:41.922Z,100.00
2022-08-31T01:45:12.327Z,100.00
2022-08-31T01:47:42.451Z,100.00
2022-08-31T01:50:13.573Z,100.00
2022-08-31T01:52:41.909Z,100.00
2022-08-31T01:55:12.208Z,100.00
2022-08-31T01:57:40.805Z,100.00
2022-08-31T02:00:10.978Z,100.00
2022-08-31T02:02:39.569Z,100.00
2022-08-31T02:05:10.875Z,100.00
2022-08-31T02:07:39.447Z,100.00
2022-08-31T02:10:08.639Z,100.00
2022-08-31T02:12:38.720Z,100.00
2022-08-31T02:15:08.659Z,100.00
2022-08-31T02:17:37.556Z,100.00
2022-08-31T02:20:10.367Z,100.00
2022-08-31T02:22:38.898Z,100.00
2022-08-31T02:25:09.616Z,100.00
2022-08-31T02:27:40.463Z,100.00
2022-08-31T02:30:11.568Z,100.00
2022-08-31T02:32:40.153Z,100.00
2022-08-31T02:35:09.985Z,100.00
2022-08-31T02:37:39.370Z,100.00
2022-08-31T02:40:12.316Z,100.00
2022-08-31T02:42:52.898Z,100.00
2022-08-31T02:45:23.170Z,100.00
2022-08-31T02:47:51.986Z,100.00
2022-08-31T02:50:21.336Z,100.00
2022-08-31T02:52:50.847Z,100.00
2022-08-31T02:55:19.588Z,100.00
2022-08-31T02:57:53.129Z,100.00
2022-08-31T03:00:24.556Z,100.00
2022-08-31T03:02:53.515Z,100.00
2022-08-31T03:05:22.305Z,100.00
2022-08-31T03:07:51.666Z,100.00
2022-08-31T03:10:23.480Z,100.00
2022-08-31T03:12:54.973Z,100.00
2022-08-31T03:15:26.868Z,100.00
2022-08-31T03:17:55.879Z,100.00
2022-08-31T03:20:26.550Z,100.00
2022-08-31T03:22:55.900Z,100.00
2022-08-31T03:25:28.053Z,100.00
2022-08-31T03:27:58.969Z,100.00
2022-08-31T03:30:29.892Z,100.00
2022-08-31T03:33:02.379Z,100.00
2022-08-31T03:35:32.177Z,100.00
2022-08-31T03:38:02.458Z,100.00
2022-08-31T03:40:31.677Z,100.00
2022-08-31T03:43:01.822Z,100.00
2022-08-31T03:45:32.507Z,100.00
2022-08-31T03:48:01.264Z,100.00
2022-08-31T03:50:29.802Z,100.00
2022-08-31T03:52:58.731Z,100.00
2022-08-31T03:55:28.829Z,100.00
2022-08-31T03:57:58.002Z,100.00
2022-08-31T04:00:29.223Z,100.00
2022-08-31T04:03:00.196Z,100.00
2022-08-31T04:05:29.662Z,100.00
2022-08-31T04:07:58.365Z,100.00
2022-08-31T04:10:26.917Z,100.00
2022-08-31T04:12:55.744Z,100.00
2022-08-31T04:15:25.450Z,100.00
2022-08-31T04:18:00.321Z,100.00
2022-08-31T04:20:29.515Z,100.00
2022-08-31T04:22:58.763Z,100.00
2022-08-31T04:25:27.116Z,100.00
2022-08-31T04:27:58.266Z,100.00
2022-08-31T04:30:27.026Z,100.00
2022-08-31T04:32:55.662Z,100.00
2022-08-31T04:35:27.835Z,100.00
2022-08-31T04:37:56.309Z,100.00
2022-08-31T04:40:30.628Z,100.00
2022-08-31T04:43:00.844Z,100.00
2022-08-31T04:45:31.617Z,100.00
2022-08-31T04:48:01.050Z,100.00
2022-08-31T04:50:31.601Z,100.00
2022-08-31T04:53:03.829Z,100.00
2022-08-31T04:55:34.022Z,100.00
2022-08-31T04:58:02.700Z,100.00
2022-08-31T05:00:31.175Z,100.00
2022-08-31T05:03:00.070Z,100.00
2022-08-31T05:05:28.904Z,100.00
2022-08-31T05:07:58.935Z,100.00
2022-08-31T05:10:28.364Z,100.00
2022-08-31T05:12:56.727Z,100.00
2022-08-31T05:15:25.185Z,100.00
2022-08-31T05:17:53.744Z,100.00
2022-08-31T05:20:22.571Z,100.00
2022-08-31T05:22:51.254Z,100.00
2022-08-31T05:25:21.299Z,100.00
2022-08-31T05:27:49.632Z,100.00
2022-08-31T05:30:18.424Z,100.00
2022-08-31T05:32:47.441Z,100.00
2022-08-31T05:35:16.723Z,100.00
2022-08-31T05:37:45.259Z,100.00
2022-08-31T05:40:14.347Z,100.00
2022-08-31T05:42:44.651Z,100.00
2022-08-31T05:45:13.355Z,100.00
2022-08-31T05:47:42.477Z,100.00
2022-08-31T05:50:12.197Z,100.00
2022-08-31T05:52:40.622Z,100.00
2022-08-31T05:55:10.047Z,100.00
2022-08-31T05:57:40.706Z,100.00
2022-08-31T06:00:13.539Z,100.00
2022-08-31T06:02:43.061Z,100.00
2022-08-31T06:05:13.652Z,100.00
2022-08-31T06:07:42.129Z,100.00
2022-08-31T06:10:12.519Z,100.00
2022-08-31T06:12:44.253Z,100.00
2022-08-31T06:15:17.799Z,100.00
2022-08-31T06:17:46.578Z,100.00
2022-08-31T06:20:18.236Z,100.00
2022-08-31T06:22:48.141Z,100.00
2022-08-31T06:25:19.488Z,100.00
2022-08-31T06:27:49.355Z,100.00
2022-08-31T06:30:22.368Z,100.00
2022-08-31T06:32:56.705Z,100.00
2022-08-31T06:35:27.326Z,100.00
2022-08-31T06:37:57.088Z,100.00
2022-08-31T06:40:27.423Z,100.00
2022-08-31T06:43:01.363Z,100.00
2022-08-31T06:45:32.527Z,100.00
2022-08-31T06:48:03.676Z,100.00
2022-08-31T06:50:35.736Z,100.00
2022-08-31T06:53:04.781Z,100.00
2022-08-31T06:55:33.405Z,100.00
2022-08-31T06:58:02.431Z,100.00
2022-08-31T07:00:33.873Z,100.00
2022-08-31T07:03:23.694Z,100.00
2022-08-31T07:05:53.897Z,100.00
2022-08-31T07:08:25.600Z,100.00
2022-08-31T07:10:54.552Z,100.00
2022-08-31T07:13:31.560Z,100.00
2022-08-31T07:16:11.469Z,100.00
2022-08-31T07:18:42.783Z,100.00
2022-08-31T07:21:14.219Z,100.00
2022-08-31T07:23:44.602Z,100.00
2022-08-31T07:26:17.753Z,100.00
2022-08-31T07:28:53.041Z,100.00
2022-08-31T07:31:44.691Z,100.00
2022-08-31T07:34:15.652Z,100.00
2022-08-31T07:36:58.540Z,100.00
2022-08-31T07:39:45.235Z,100.00
2022-08-31T07:42:16.613Z,100.00
2022-08-31T07:44:53.118Z,100.00
2022-08-31T07:47:30.084Z,100.00
2022-08-31T07:50:03.799Z,100.00
2022-08-31T07:52:38.807Z,100.00
2022-08-31T07:55:09.554Z,100.00
2022-08-31T07:57:45.094Z,100.00
2022-08-31T08:00:20.839Z,100.00
2022-08-31T08:02:54.425Z,100.00
2022-08-31T08:05:28.761Z,100.00
2022-08-31T08:08:09.314Z,100.00
2022-08-31T08:10:52.159Z,100.00
2022-08-31T08:13:23.410Z,100.00
2022-08-31T08:15:54.641Z,100.00
2022-08-31T08:18:24.914Z,100.00
2022-08-31T08:20:53.753Z,100.00
2022-08-31T08:23:28.105Z,100.00
2022-08-31T08:26:01.776Z,100.00
2022-08-31T08:28:40.467Z,100.00
2022-08-31T08:31:14.940Z,100.00
2022-08-31T08:33:46.489Z,100.00
2022-08-31T08:36:18.686Z,100.00
2022-08-31T08:38:50.713Z,100.00
2022-08-31T08:41:21.423Z,100.00
2022-08-31T08:43:57.272Z,100.00
2022-08-31T08:46:35.463Z,100.00
2022-08-31T08:49:19.934Z,100.00
2022-08-31T08:51:53.150Z,100.00
2022-08-31T08:54:30.000Z,100.00
2022-08-31T08:57:01.774Z,100.00
2022-08-31T08:59:31.078Z,100.00
2022-08-31T09:02:07.106Z,100.00
2022-08-31T09:04:51.160Z,100.00
2022-08-31T09:07:35.090Z,100.00
2022-08-31T09:10:11.868Z,100.00
2022-08-31T09:12:49.485Z,100.00
2022-08-31T09:15:36.863Z,100.00
2022-08-31T09:18:18.329Z,100.00
2022-08-31T09:23:49.482Z,100.00
2022-08-31T09:26:19.826Z,100.00
2022-08-31T09:28:53.264Z,100.00
2022-08-31T09:31:37.969Z,100.00
2022-08-31T09:34:14.882Z,100.00
2022-08-31T09:36:43.806Z,100.00
2022-08-31T09:39:23.132Z,100.00
2022-08-31T09:41:54.429Z,100.00
2022-08-31T09:44:34.469Z,100.00
2022-08-31T09:47:07.285Z,100.00
2022-08-31T09:49:38.065Z,100.00
2022-08-31T09:52:43.364Z,100.00
2022-08-31T09:55:25.118Z,100.00
2022-08-31T09:57:59.386Z,100.00
2022-08-31T10:00:34.865Z,100.00
2022-08-31T10:03:19.244Z,100.00
2022-08-31T10:05:48.914Z,100.00
2022-08-31T10:08:36.029Z,100.00
2022-08-31T10:11:12.623Z,100.00
2022-08-31T10:13:43.951Z,100.00
2022-08-31T10:16:26.362Z,100.00
2022-08-31T10:19:02.214Z,100.00
2022-08-31T10:21:44.424Z,100.00
2022-08-31T10:24:28.309Z,100.00
2022-08-31T10:27:10.682Z,100.00
2022-08-31T10:29:44.542Z,100.00
2022-08-31T10:32:25.163Z,100.00
2022-08-31T10:35:06.156Z,100.00
2022-08-31T10:37:43.873Z,100.00
2022-08-31T10:40:18.759Z,100.00
2022-08-31T10:43:00.019Z,100.00
2022-08-31T10:45:30.949Z,100.00
2022-08-31T10:48:02.264Z,100.00
2022-08-31T10:50:40.566Z,100.00
2022-08-31T10:53:22.779Z,100.00
2022-08-31T10:56:02.519Z,100.00
2022-08-31T10:58:42.909Z,100.00
2022-08-31T11:01:18.086Z,100.00
2022-08-31T11:04:01.524Z,100.00
2022-08-31T11:06:39.296Z,100.00
2022-08-31T11:09:18.667Z,100.00
2022-08-31T11:11:58.364Z,100.00
2022-08-31T11:15:06.677Z,100.00
2022-08-31T11:17:50.474Z,100.00
2022-08-31T11:20:51.728Z,100.00
2022-08-31T11:23:50.269Z,100.00
2022-08-31T11:26:51.097Z,100.00
2022-08-31T11:29:37.593Z,100.00
2022-08-31T11:32:15.993Z,100.00
2022-08-31T11:34:51.066Z,100.00
2022-08-31T11:37:56.147Z,100.00
2022-08-31T11:41:00.408Z,100.00
2022-08-31T11:43:53.940Z,100.00
2022-08-31T11:46:45.849Z,100.00
2022-08-31T11:49:41.360Z,100.00
2022-08-31T11:52:30.004Z,100.00
2022-08-31T11:55:06.833Z,100.00
2022-08-31T11:58:20.769Z,100.00
2022-08-31T12:00:54.222Z,100.00
2022-08-31T12:03:55.860Z,100.00
2022-08-31T12:07:06.060Z,100.00
2022-08-31T12:10:10.377Z,100.00
2022-08-31T12:12:55.646Z,100.00
2022-08-31T12:15:34.709Z,100.00
2022-08-31T12:18:19.605Z,100.00
2022-08-31T12:21:17.298Z,100.00
2022-08-31T12:23:58.042Z,100.00
2022-08-31T12:26:48.810Z,100.00
2022-08-31T12:29:27.123Z,100.00
2022-08-31T12:32:23.799Z,100.00
2022-08-31T12:35:01.914Z,100.00
2022-08-31T12:37:32.682Z,100.00
2022-08-31T12:40:18.352Z,100.00
2022-08-31T12:42:58.153Z,100.00
2022-08-31T12:45:46.601Z,100.00
2022-08-31T12:48:27.453Z,100.00
2022-08-31T12:51:01.188Z,100.00
2022-08-31T12:54:03.110Z,100.00
2022-08-31T12:56:40.148Z,100.00
2022-08-31T12:59:21.715Z,100.00
2022-08-31T13:01:52.146Z,100.00
2022-08-31T13:04:23.507Z,100.00
2022-08-31T13:06:52.054Z,100.00
2022-08-31T13:09:35.821Z,100.00
2022-08-31T13:12:04.587Z,100.00
2022-08-31T13:14:42.298Z,100.00
2022-08-31T13:17:16.431Z,100.00
2022-08-31T13:19:51.311Z,100.00
2022-08-31T13:22:29.920Z,100.00
2022-08-31T13:25:14.249Z,100.00
2022-08-31T13:27:50.302Z,100.00
2022-08-31T13:30:25.548Z,100.00
2022-08-31T13:32:55.000Z,100.00
2022-08-31T13:35:28.482Z,100.00
2022-08-31T13:38:04.986Z,100.00
2022-08-31T13:40:37.714Z,100.00
2022-08-31T13:43:09.088Z,100.00
2022-08-31T13:45:47.631Z,100.00
2022-08-31T13:48:26.826Z,100.00
2022-08-31T13:51:07.727Z,100.00
2022-08-31T13:53:43.833Z,96.70
2022-08-31T13:56:44.019Z,100.00
2022-08-31T13:59:29.865Z,100.00
2022-08-31T14:02:02.131Z,100.00
2022-08-31T14:04:39.372Z,100.00
2022-08-31T14:07:08.172Z,97.26
2022-08-31T14:09:37.487Z,90.96
2022-08-31T14:12:10.500Z,98.28
2022-08-31T14:14:43.516Z,100.00
2022-08-31T14:17:16.750Z,100.00
2022-08-31T14:19:47.649Z,100.00
2022-08-31T14:22:30.611Z,100.00
2022-08-31T14:25:01.020Z,100.00
2022-08-31T14:27:30.771Z,98.61
2022-08-31T14:30:00.564Z,98.13
2022-08-31T14:32:33.801Z,100.00
2022-08-31T14:35:02.692Z,91.92
2022-08-31T14:37:31.961Z,89.96
2022-08-31T14:40:07.554Z,84.17
2022-08-31T14:42:40.035Z,82.50
2022-08-31T14:45:12.933Z,76.04
2022-08-31T14:47:44.259Z,76.01
2022-08-31T14:50:18.362Z,79.69
2022-08-31T14:52:53.587Z,83.60
2022-08-31T14:55:27.803Z,94.50
2022-08-31T14:58:02.071Z,100.00
2022-08-31T15:00:44.277Z,100.00
2022-08-31T15:03:15.451Z,99.26
2022-08-31T15:05:44.445Z,100.00
2022-08-31T15:08:13.421Z,100.00
2022-08-31T15:10:42.277Z,100.00
2022-08-31T15:13:11.002Z,100.00
2022-08-31T15:15:39.484Z,100.00
2022-08-31T15:18:10.272Z,100.00
2022-08-31T15:20:42.035Z,100.00
2022-08-31T15:23:11.492Z,100.00
2022-08-31T15:25:39.952Z,94.64
2022-08-31T15:28:09.047Z,96.13
2022-08-31T15:30:39.916Z,83.13
2022-08-31T15:33:11.359Z,81.54
2022-08-31T15:35:42.054Z,86.72
2022-08-31T15:38:12.116Z,100.00
2022-08-31T15:40:41.186Z,90.61
2022-08-31T15:43:16.195Z,96.64
2022-08-31T15:45:45.070Z,89.92
2022-08-31T15:48:31.490Z,85.94
2022-08-31T15:51:01.530Z,73.21
2022-08-31T15:53:31.024Z,97.74
2022-08-31T15:56:05.827Z,94.31
2022-08-31T15:58:34.624Z,81.64
2022-08-31T16:01:05.330Z,80.83
2022-08-31T16:03:35.488Z,96.14
2022-08-31T16:06:06.187Z,100.00
2022-08-31T16:08:34.714Z,100.00
2022-08-31T16:11:03.395Z,98.17
2022-08-31T16:13:32.076Z,86.11
2022-08-31T16:16:01.654Z,82.90
2022-08-31T16:18:31.512Z,75.09
2022-08-31T16:21:07.738Z,85.90
2022-08-31T16:23:36.398Z,100.00
2022-08-31T16:26:06.558Z,100.00
2022-08-31T16:28:36.538Z,100.00
2022-08-31T16:31:06.929Z,100.00
2022-08-31T16:33:35.998Z,100.00
2022-08-31T16:36:06.813Z,100.00
2022-08-31T16:38:35.268Z,100.00
2022-08-31T16:41:04.576Z,100.00
2022-08-31T16:43:32.904Z,100.00
2022-08-31T16:46:24.201Z,90.56
2022-08-31T16:49:12.048Z,100.00
2022-08-31T16:51:45.614Z,100.00
2022-08-31T16:54:17.293Z,100.00
2022-08-31T16:56:52.018Z,100.00
2022-08-31T16:59:21.328Z,100.00
2022-08-31T17:01:49.828Z,100.00
2022-08-31T17:04:41.028Z,100.00
2022-08-31T17:07:13.016Z,97.56
2022-08-31T17:09:42.651Z,92.25
2022-08-31T17:12:13.537Z,100.00
2022-08-31T17:14:47.271Z,100.00
2022-08-31T17:17:20.005Z,100.00
2022-08-31T17:19:48.942Z,100.00
2022-08-31T17:22:26.925Z,100.00
2022-08-31T17:24:58.122Z,100.00
2022-08-31T17:27:29.193Z,100.00
2022-08-31T17:30:01.160Z,100.00
2022-08-31T17:32:30.619Z,100.00
2022-08-31T17:34:59.526Z,100.00
2022-08-31T17:37:36.744Z,100.00
2022-08-31T17:40:09.598Z,100.00
2022-08-31T17:42:38.786Z,100.00
2022-08-31T17:45:09.117Z,100.00
2022-08-31T17:47:37.944Z,100.00
2022-08-31T17:50:08.317Z,100.00
2022-08-31T17:52:38.624Z,100.00
2022-08-31T17:55:07.962Z,100.00
2022-08-31T17:57:36.888Z,100.00
2022-08-31T18:00:22.768Z,100.00
2022-08-31T18:03:13.795Z,100.00
2022-08-31T18:05:55.328Z,100.00
2022-08-31T18:08:39.950Z,100.00
2022-08-31T18:11:19.665Z,100.00
2022-08-31T18:13:53.387Z,100.00
2022-08-31T18:16:22.420Z,100.00
2022-08-31T18:18:52.346Z,100.00
2022-08-31T18:21:24.029Z,100.00
2022-08-31T18:23:56.221Z,100.00
2022-08-31T18:26:28.634Z,100.00
2022-08-31T18:28:58.514Z,100.00
2022-08-31T18:31:31.605Z,100.00
2022-08-31T18:34:04.836Z,100.00
2022-08-31T18:36:35.643Z,100.00
2022-08-31T18:39:07.760Z,100.00
2022-08-31T18:41:54.624Z,100.00
2022-08-31T18:44:52.400Z,100.00
2022-08-31T18:47:22.208Z,100.00
2022-08-31T18:49:52.690Z,100.00
2022-08-31T18:52:23.518Z,100.00
2022-08-31T18:54:56.197Z,100.00
2022-08-31T18:57:26.545Z,100.00
2022-08-31T18:59:58.066Z,100.00
2022-08-31T19:02:27.095Z,100.00
2022-08-31T19:04:55.879Z,100.00
2022-08-31T19:07:25.982Z,100.00
2022-08-31T19:09:56.422Z,100.00
2022-08-31T19:12:24.808Z,100.00
2022-08-31T19:14:55.598Z,100.00
2022-08-31T19:17:24.711Z,100.00
2022-08-31T19:19:54.618Z,100.00
2022-08-31T19:22:23.608Z,100.00
2022-08-31T19:25:11.794Z,100.00
2022-08-31T19:27:56.070Z,100.00
2022-08-31T19:30:59.942Z,100.00
2022-08-31T19:33:35.066Z,100.00
2022-08-31T19:36:12.691Z,100.00
2022-08-31T19:38:48.612Z,100.00
2022-08-31T19:41:35.295Z,100.00
2022-08-31T19:44:11.125Z,100.00
2022-08-31T19:46:52.578Z,100.00
2022-08-31T19:49:23.559Z,100.00
2022-08-31T19:51:58.667Z,100.00
2022-08-31T19:54:41.658Z,100.00
2022-08-31T19:57:16.748Z,100.00
2022-08-31T19:59:49.132Z,100.00
2022-08-31T20:02:20.099Z,100.00
2022-08-31T20:04:49.042Z,100.00
2022-08-31T20:07:19.435Z,100.00
2022-08-31T20:09:49.027Z,100.00
2022-08-31T20:12:19.904Z,100.00
2022-08-31T20:14:52.054Z,100.00
2022-08-31T20:17:27.268Z,100.00
2022-08-31T20:19:58.122Z,100.00
2022-08-31T20:22:30.014Z,100.00
2022-08-31T20:25:01.611Z,100.00
2022-08-31T20:27:39.755Z,100.00
2022-08-31T20:30:10.636Z,100.00
2022-08-31T20:32:40.106Z,100.00
2022-08-31T20:35:10.740Z,100.00
2022-08-31T20:37:41.171Z,100.00
2022-08-31T20:40:16.570Z,100.00
2022-08-31T20:42:48.498Z,100.00
2022-08-31T20:45:17.269Z,100.00
2022-08-31T20:48:04.877Z,100.00
2022-08-31T20:50:35.197Z,100.00
2022-08-31T20:53:07.473Z,100.00
2022-08-31T20:56:55.408Z,100.00
2022-08-31T20:59:47.368Z,100.00
2022-08-31T21:02:17.364Z,100.00
2022-08-31T21:04:48.706Z,100.00
2022-08-31T21:07:23.387Z,100.00
2022-08-31T21:10:29.583Z,100.00
2022-08-31T21:13:09.195Z,100.00
2022-08-31T21:15:45.113Z,100.00
2022-08-31T21:18:17.945Z,100.00
2022-08-31T21:20:56.011Z,100.00
2022-08-31T21:23:36.544Z,100.00
2022-08-31T21:26:08.856Z,100.00
2022-08-31T21:28:40.750Z,100.00
2022-08-31T21:31:16.443Z,100.00
2022-08-31T21:33:59.481Z,100.00
2022-08-31T21:36:32.806Z,100.00
2022-08-31T21:39:02.906Z,100.00
2022-08-31T21:41:32.351Z,100.00
2022-08-31T21:44:02.411Z,100.00
2022-08-31T21:46:35.356Z,100.00
2022-08-31T21:49:05.004Z,100.00
2022-08-31T21:51:36.009Z,100.00
2022-08-31T21:54:07.718Z,100.00
2022-08-31T21:56:44.147Z,100.00
2022-08-31T21:59:13.826Z,100.00
2022-08-31T22:01:45.350Z,100.00
2022-08-31T22:04:16.125Z,100.00
2022-08-31T22:06:46.633Z,100.00
2022-08-31T22:09:17.892Z,100.00
2022-08-31T22:11:50.964Z,100.00
2022-08-31T22:14:26.012Z,100.00
2022-08-31T22:16:58.209Z,100.00
2022-08-31T22:19:28.876Z,100.00
2022-08-31T22:22:00.100Z,100.00
2022-08-31T22:24:31.843Z,100.00
2022-08-31T22:27:05.175Z,100.00
2022-08-31T22:29:35.795Z,100.00
2022-08-31T22:32:12.313Z,100.00
2022-08-31T22:34:42.135Z,100.00
2022-08-31T22:37:11.529Z,100.00
2022-08-31T22:39:42.800Z,100.00
2022-08-31T22:42:13.755Z,100.00
2022-08-31T22:44:44.033Z,100.00
2022-08-31T22:47:15.729Z,100.00
2022-08-31T22:49:44.470Z,100.00
2022-08-31T22:52:17.327Z,100.00
2022-08-31T22:54:46.324Z,100.00
2022-08-31T22:57:16.397Z,100.00
2022-08-31T22:59:45.413Z,100.00
2022-08-31T23:02:18.694Z,100.00
2022-08-31T23:04:48.426Z,100.00
2022-08-31T23:07:22.310Z,100.00
2022-08-31T23:09:51.990Z,100.00
2022-08-31T23:12:22.574Z,100.00
2022-08-31T23:14:51.545Z,100.00
2022-08-31T23:17:23.313Z,100.00
2022-08-31T23:19:54.523Z,100.00
2022-08-31T23:22:24.517Z,100.00
2022-08-31T23:24:53.353Z,100.00
2022-08-31T23:27:23.699Z,100.00
2022-08-31T23:29:56.218Z,100.00
2022-08-31T23:32:29.236Z,100.00
2022-08-31T23:34:58.563Z,100.00
2022-08-31T23:37:30.817Z,100.00
2022-08-31T23:40:00.832Z,100.00
2022-08-31T23:42:30.609Z,100.00
2022-08-31T23:45:00.112Z,100.00
2022-08-31T23:47:33.161Z,100.00
2022-08-31T23:50:04.994Z,100.00
2022-08-31T23:52:41.713Z,100.00
2022-08-31T23:55:11.612Z,100.00
2022-08-31T23:57:41.980Z,100.00
